Sarah Desgagnes — XJAB — position and weather

sailwx.info

Track history (hours):
 
Tides and Currents Weather Stations Pressure Air Temp Water Temp Dewpoint Dewpoint Depression Visibility Wind Speed Wind Dir Waves Ship Positions

Sarah Desgagnes

Last reported at 2014-Sep-15 19:33 UTC. Time now 2014-Sep-16 13:29 UTC.
Position N 43°60' W 076°32'.

Length 148 m; draft 8 m.

Type: Tanker. MMSI: 316012308.

Date/timePositionNaut miles runAvg speedWind from/ knotsBaromVisibWave heightAir tempDewpointWater temp
2014-Sep-15 19:33N 43°60' W 076°32'1312.8
2014-Sep-15 18:33N 44°09' W 076°20'1111.1
2014-Sep-15 17:33N 44°15' W 076°06'92 7.0
2014-Sep-15 04:18N 45°10' W 074°21'810.2
2014-Sep-15 03:33N 45°14' W 074°12'9 8.7
2014-Sep-15 02:33N 45°14' W 073°60'5 5.0
2014-Sep-15 01:32N 45°18' W 073°56'1 0.8
2014-Sep-15 00:32N 45°19' W 073°55'1 1.2
2014-Sep-14 23:33N 45°20' W 073°54'9 9.1
2014-Sep-14 22:33N 45°25' W 073°43'5 5.5
2014-Sep-14 21:33N 45°24' W 073°35'2 1.5
2014-Sep-14 20:18N 45°24' W 073°33'4 4.8
2014-Sep-14 19:34N 45°28' W 073°30'2 2.1
2014-Sep-14 18:31N 45°30' W 073°31'2 2.3
2014-Sep-14 17:33N 45°32' W 073°32'6 0.3
2014-Sep-13 17:31N 45°38' W 073°29'1 0.2
2014-Sep-13 11:32N 45°37' W 073°30'2 2.0
2014-Sep-13 10:24N 45°35' W 073°30'5 6.0
2014-Sep-13 09:33N 45°30' W 073°31'2 2.2
2014-Sep-13 08:33N 45°27' W 073°30'4 4.0
2014-Sep-13 07:33N 45°24' W 073°34'3 2.7
2014-Sep-13 06:33N 45°24' W 073°38'4 3.8
2014-Sep-13 05:33N 45°25' W 073°43'1010.1
2014-Sep-13 04:33N 45°19' W 073°55'1 0.8
2014-Sep-13 03:33N 45°18' W 073°56'4 4.0
2014-Sep-13 02:33N 45°15' W 073°59'10 9.2
2014-Sep-13 01:31N 45°14' W 074°12'99 8.3
2014-Sep-12 13:32N 44°15' W 076°05'1212.3
2014-Sep-12 12:33N 44°09' W 076°20'1413.9
2014-Sep-12 11:33N 43°58' W 076°30'  
2014-Sep-06 01:24N 43°55' W 076°42'1213.7
2014-Sep-06 00:33N 44°02' W 076°28'1312.9
2014-Sep-05 23:33N 44°12' W 076°17'1111.4
2014-Sep-05 22:33N 44°16' W 076°03'  
Track history (hours):
 
Tides and Currents Weather Stations Pressure Air Temp Water Temp Dewpoint Dewpoint Depression Visibility Wind Speed Wind Dir Waves Ship Positions

Sarah Desgagnes

Last reported at 2014-Sep-15 19:33 UTC. Time now 2014-Sep-16 13:29 UTC.
Position N 43°60' W 076°32'.

Length 148 m; draft 8 m.

Type: Tanker. MMSI: 316012308.

Date/timePositionNaut miles runAvg speedWind from/ knotsBaromVisibWave heightAir tempDewpointWater temp
2014-Sep-15 19:33N 43°60' W 076°32'1312.8
2014-Sep-15 18:33N 44°09' W 076°20'1111.1
2014-Sep-15 17:33N 44°15' W 076°06'92 7.0
2014-Sep-15 04:18N 45°10' W 074°21'810.2
2014-Sep-15 03:33N 45°14' W 074°12'9 8.7
2014-Sep-15 02:33N 45°14' W 073°60'5 5.0
2014-Sep-15 01:32N 45°18' W 073°56'1 0.8
2014-Sep-15 00:32N 45°19' W 073°55'1 1.2
2014-Sep-14 23:33N 45°20' W 073°54'9 9.1
2014-Sep-14 22:33N 45°25' W 073°43'5 5.5
2014-Sep-14 21:33N 45°24' W 073°35'2 1.5
2014-Sep-14 20:18N 45°24' W 073°33'4 4.8
2014-Sep-14 19:34N 45°28' W 073°30'2 2.1
2014-Sep-14 18:31N 45°30' W 073°31'2 2.3
2014-Sep-14 17:33N 45°32' W 073°32'6 0.3
2014-Sep-13 17:31N 45°38' W 073°29'1 0.2
2014-Sep-13 11:32N 45°37' W 073°30'2 2.0
2014-Sep-13 10:24N 45°35' W 073°30'5 6.0
2014-Sep-13 09:33N 45°30' W 073°31'2 2.2
2014-Sep-13 08:33N 45°27' W 073°30'4 4.0
2014-Sep-13 07:33N 45°24' W 073°34'3 2.7
2014-Sep-13 06:33N 45°24' W 073°38'4 3.8
2014-Sep-13 05:33N 45°25' W 073°43'1010.1
2014-Sep-13 04:33N 45°19' W 073°55'1 0.8
2014-Sep-13 03:33N 45°18' W 073°56'4 4.0
2014-Sep-13 02:33N 45°15' W 073°59'10 9.2
2014-Sep-13 01:31N 45°14' W 074°12'99 8.3
2014-Sep-12 13:32N 44°15' W 076°05'1212.3
2014-Sep-12 12:33N 44°09' W 076°20'1413.9
2014-Sep-12 11:33N 43°58' W 076°30'  
2014-Sep-06 01:24N 43°55' W 076°42'1213.7
2014-Sep-06 00:33N 44°02' W 076°28'1312.9
2014-Sep-05 23:33N 44°12' W 076°17'1111.4
2014-Sep-05 22:33N 44°16' W 076°03'  

Dump ship's entire track history